sensor_id;sensor_type;location;lat;lon;timestamp;pressure;altitude;pressure_sealevel;temperature;humidity
34237;BME280;20501;45.956;13.632;2023-02-13T00:02:23;102747.22;;;8.35;49.99
34237;BME280;20501;45.956;13.632;2023-02-13T00:04:49;102746.19;;;9.30;47.13
34237;BME280;20501;45.956;13.632;2023-02-13T00:07:14;102739.94;;;9.47;46.93
34237;BME280;20501;45.956;13.632;2023-02-13T00:09:39;102746.41;;;7.74;51.61
34237;BME280;20501;45.956;13.632;2023-02-13T00:12:06;102740.53;;;8.25;48.08
34237;BME280;20501;45.956;13.632;2023-02-13T00:14:36;102738.09;;;6.74;51.63
34237;BME280;20501;45.956;13.632;2023-02-13T00:17:02;102740.97;;;8.34;50.25
34237;BME280;20501;45.956;13.632;2023-02-13T00:19:28;102736.63;;;8.51;47.81
34237;BME280;20501;45.956;13.632;2023-02-13T00:21:53;102733.22;;;6.84;53.27
34237;BME280;20501;45.956;13.632;2023-02-13T00:24:19;102739.94;;;7.16;52.52
34237;BME280;20501;45.956;13.632;2023-02-13T00:26:44;102737.75;;;8.26;50.30
34237;BME280;20501;45.956;13.632;2023-02-13T00:29:10;102742.09;;;8.69;47.83
34237;BME280;20501;45.956;13.632;2023-02-13T00:31:35;102747.59;;;5.37;56.70
34237;BME280;20501;45.956;13.632;2023-02-13T00:34:00;102736.84;;;8.65;49.60
34237;BME280;20501;45.956;13.632;2023-02-13T00:36:26;102744.00;;;6.82;53.14
34237;BME280;20501;45.956;13.632;2023-02-13T00:38:53;102745.69;;;7.70;51.23
34237;BME280;20501;45.956;13.632;2023-02-13T00:41:19;102745.88;;;9.19;47.50
34237;BME280;20501;45.956;13.632;2023-02-13T00:43:46;102743.50;;;9.12;47.74
34237;BME280;20501;45.956;13.632;2023-02-13T00:46:11;102743.34;;;9.68;46.58
34237;BME280;20501;45.956;13.632;2023-02-13T00:48:37;102743.31;;;9.86;45.80
34237;BME280;20501;45.956;13.632;2023-02-13T00:51:03;102746.44;;;8.71;48.77
34237;BME280;20501;45.956;13.632;2023-02-13T00:53:29;102754.78;;;9.56;46.79
34237;BME280;20501;45.956;13.632;2023-02-13T00:55:55;102754.16;;;9.16;47.65
34237;BME280;20501;45.956;13.632;2023-02-13T00:58:21;102750.44;;;7.22;52.27
34237;BME280;20501;45.956;13.632;2023-02-13T01:00:47;102753.94;;;7.45;50.58
34237;BME280;20501;45.956;13.632;2023-02-13T01:03:14;102755.69;;;7.67;52.07
34237;BME280;20501;45.956;13.632;2023-02-13T01:05:39;102753.06;;;6.79;53.17
34237;BME280;20501;45.956;13.632;2023-02-13T01:08:05;102755.88;;;5.81;57.04
34237;BME280;20501;45.956;13.632;2023-02-13T01:10:30;102753.84;;;7.88;51.69
34237;BME280;20501;45.956;13.632;2023-02-13T01:12:56;102745.78;;;9.03;48.66
34237;BME280;20501;45.956;13.632;2023-02-13T01:15:21;102742.34;;;8.24;50.08
34237;BME280;20501;45.956;13.632;2023-02-13T01:17:47;102754.75;;;9.03;48.05
34237;BME280;20501;45.956;13.632;2023-02-13T01:20:13;102751.34;;;9.17;48.01
34237;BME280;20501;45.956;13.632;2023-02-13T01:22:39;102752.00;;;9.75;46.46
34237;BME280;20501;45.956;13.632;2023-02-13T01:25:05;102737.34;;;9.97;45.77
34237;BME280;20501;45.956;13.632;2023-02-13T01:27:31;102750.09;;;9.07;48.15
34237;BME280;20501;45.956;13.632;2023-02-13T01:29:58;102740.44;;;4.84;58.21
34237;BME280;20501;45.956;13.632;2023-02-13T01:32:23;102739.38;;;4.61;61.04
34237;BME280;20501;45.956;13.632;2023-02-13T01:34:49;102748.88;;;5.00;60.59
34237;BME280;20501;45.956;13.632;2023-02-13T01:37:14;102731.59;;;7.02;53.83
34237;BME280;20501;45.956;13.632;2023-02-13T01:39:40;102726.91;;;7.69;52.75
34237;BME280;20501;45.956;13.632;2023-02-13T01:42:14;102720.34;;;8.14;50.74
34237;BME280;20501;45.956;13.632;2023-02-13T01:44:51;102718.56;;;5.75;57.60
34237;BME280;20501;45.956;13.632;2023-02-13T01:47:34;102712.97;;;3.90;62.54
34237;BME280;20501;45.956;13.632;2023-02-13T01:50:12;102711.84;;;6.58;54.48
34237;BME280;20501;45.956;13.632;2023-02-13T01:52:46;102719.16;;;7.82;52.38
34237;BME280;20501;45.956;13.632;2023-02-13T01:55:13;102725.09;;;9.21;48.28
34237;BME280;20501;45.956;13.632;2023-02-13T01:57:41;102724.28;;;8.07;49.39
34237;BME280;20501;45.956;13.632;2023-02-13T02:00:12;102715.88;;;7.94;50.30
34237;BME280;20501;45.956;13.632;2023-02-13T02:02:41;102721.19;;;8.91;49.24
34237;BME280;20501;45.956;13.632;2023-02-13T02:05:09;102716.69;;;7.77;51.77
34237;BME280;20501;45.956;13.632;2023-02-13T02:07:38;102713.84;;;6.97;54.45
34237;BME280;20501;45.956;13.632;2023-02-13T02:10:08;102718.44;;;8.93;49.14
34237;BME280;20501;45.956;13.632;2023-02-13T02:12:43;102714.09;;;9.08;48.57
34237;BME280;20501;45.956;13.632;2023-02-13T02:15:09;102722.09;;;8.73;48.13
34237;BME280;20501;45.956;13.632;2023-02-13T02:17:35;102711.38;;;8.90;49.35
34237;BME280;20501;45.956;13.632;2023-02-13T02:33:32;102720.19;;;8.94;49.14
34237;BME280;20501;45.956;13.632;2023-02-13T02:36:21;102707.38;;;7.84;50.70
34237;BME280;20501;45.956;13.632;2023-02-13T02:41:56;102713.16;;;8.72;49.90
34237;BME280;20501;45.956;13.632;2023-02-13T02:47:26;102714.94;;;9.43;47.82
34237;BME280;20501;45.956;13.632;2023-02-13T02:53:36;102709.81;;;9.21;48.22
34237;BME280;20501;45.956;13.632;2023-02-13T03:01:31;102712.13;;;9.80;46.70
34237;BME280;20501;45.956;13.632;2023-02-13T03:04:22;102712.22;;;8.54;50.03
34237;BME280;20501;45.956;13.632;2023-02-13T03:07:10;102707.41;;;8.23;48.85
34237;BME280;20501;45.956;13.632;2023-02-13T03:09:41;102704.09;;;9.27;47.99
34237;BME280;20501;45.956;13.632;2023-02-13T03:12:37;102698.00;;;9.75;46.78
34237;BME280;20501;45.956;13.632;2023-02-13T03:15:22;102707.53;;;7.19;51.71
34237;BME280;20501;45.956;13.632;2023-02-13T03:17:50;102701.03;;;6.60;53.72
34237;BME280;20501;45.956;13.632;2023-02-13T03:20:44;102715.31;;;8.83;49.19
34237;BME280;20501;45.956;13.632;2023-02-13T03:29:48;102699.41;;;6.78;51.19
34237;BME280;20501;45.956;13.632;2023-02-13T03:33:08;102699.94;;;7.29;52.95
34237;BME280;20501;45.956;13.632;2023-02-13T03:38:47;102704.03;;;7.98;51.04
34237;BME280;20501;45.956;13.632;2023-02-13T03:41:22;102708.25;;;8.98;48.31
34237;BME280;20501;45.956;13.632;2023-02-13T03:43:57;102708.53;;;9.11;46.93
34237;BME280;20501;45.956;13.632;2023-02-13T03:46:30;102695.78;;;4.27;59.80
34237;BME280;20501;45.956;13.632;2023-02-13T03:48:58;102700.19;;;7.02;54.28
34237;BME280;20501;45.956;13.632;2023-02-13T03:51:59;102695.69;;;7.85;51.60
34237;BME280;20501;45.956;13.632;2023-02-13T03:54:46;102708.72;;;4.43;58.76
34237;BME280;20501;45.956;13.632;2023-02-13T03:57:32;102702.81;;;5.89;55.75
34237;BME280;20501;45.956;13.632;2023-02-13T04:00:17;102706.53;;;6.79;53.88
34237;BME280;20501;45.956;13.632;2023-02-13T04:02:53;102703.53;;;7.90;51.64
34237;BME280;20501;45.956;13.632;2023-02-13T04:05:23;102703.94;;;8.76;49.54
34237;BME280;20501;45.956;13.632;2023-02-13T04:07:50;102706.19;;;6.20;54.00
34237;BME280;20501;45.956;13.632;2023-02-13T04:10:17;102715.28;;;7.06;51.46
34237;BME280;20501;45.956;13.632;2023-02-13T04:15:27;102722.59;;;9.18;48.30
34237;BME280;20501;45.956;13.632;2023-02-13T04:18:07;102721.72;;;8.80;48.99
34237;BME280;20501;45.956;13.632;2023-02-13T04:20:34;102726.16;;;8.43;49.37
34237;BME280;20501;45.956;13.632;2023-02-13T04:23:06;102718.84;;;9.20;47.85
34237;BME280;20501;45.956;13.632;2023-02-13T04:25:35;102722.53;;;8.82;48.78
34237;BME280;20501;45.956;13.632;2023-02-13T04:28:02;102713.50;;;9.54;47.01
34237;BME280;20501;45.956;13.632;2023-02-13T04:30:27;102710.84;;;6.83;53.87
34237;BME280;20501;45.956;13.632;2023-02-13T04:32:53;102722.09;;;8.73;49.46
34237;BME280;20501;45.956;13.632;2023-02-13T04:35:18;102714.56;;;9.34;47.62
34237;BME280;20501;45.956;13.632;2023-02-13T04:37:43;102718.66;;;9.58;46.39
34237;BME280;20501;45.956;13.632;2023-02-13T04:40:09;102713.16;;;8.72;48.33
34237;BME280;20501;45.956;13.632;2023-02-13T04:42:35;102714.78;;;7.17;51.57
34237;BME280;20501;45.956;13.632;2023-02-13T04:45:00;102716.53;;;6.97;51.46
34237;BME280;20501;45.956;13.632;2023-02-13T04:47:29;102711.72;;;7.47;52.62
34237;BME280;20501;45.956;13.632;2023-02-13T04:49:54;102711.34;;;8.54;49.36
34237;BME280;20501;45.956;13.632;2023-02-13T04:52:20;102711.34;;;8.54;49.11
34237;BME280;20501;45.956;13.632;2023-02-13T04:54:45;102715.69;;;9.12;48.09
34237;BME280;20501;45.956;13.632;2023-02-13T04:57:10;102713.00;;;8.37;47.21
34237;BME280;20501;45.956;13.632;2023-02-13T04:59:36;102713.06;;;7.37;51.73
34237;BME280;20501;45.956;13.632;2023-02-13T05:02:01;102720.97;;;8.96;48.30
34237;BME280;20501;45.956;13.632;2023-02-13T05:04:27;102711.72;;;6.61;50.86
34237;BME280;20501;45.956;13.632;2023-02-13T05:06:53;102718.94;;;4.28;58.78
34237;BME280;20501;45.956;13.632;2023-02-13T05:09:18;102714.78;;;5.30;59.92
34237;BME280;20501;45.956;13.632;2023-02-13T05:11:44;102714.16;;;7.33;53.15
34237;BME280;20501;45.956;13.632;2023-02-13T05:14:09;102720.31;;;8.91;48.79
34237;BME280;20501;45.956;13.632;2023-02-13T05:16:35;102724.50;;;3.92;60.18
34237;BME280;20501;45.956;13.632;2023-02-13T05:19:01;102720.06;;;5.82;58.11
34237;BME280;20501;45.956;13.632;2023-02-13T05:21:26;102722.84;;;7.17;53.50
34237;BME280;20501;45.956;13.632;2023-02-13T05:24:10;102709.00;;;8.65;48.72
34237;BME280;20501;45.956;13.632;2023-02-13T05:26:35;102708.13;;;9.19;47.68
34237;BME280;20501;45.956;13.632;2023-02-13T05:29:01;102715.22;;;8.48;49.16
34237;BME280;20501;45.956;13.632;2023-02-13T05:31:49;102718.44;;;9.10;48.19
34237;BME280;20501;45.956;13.632;2023-02-13T05:34:15;102716.00;;;9.41;47.05
34237;BME280;20501;45.956;13.632;2023-02-13T05:36:40;102713.50;;;9.54;46.63
34237;BME280;20501;45.956;13.632;2023-02-13T05:39:06;102705.56;;;8.98;46.29
34237;BME280;20501;45.956;13.632;2023-02-13T05:41:32;102706.25;;;7.69;50.96
34237;BME280;20501;45.956;13.632;2023-02-13T05:43:57;102712.00;;;8.59;49.07
34237;BME280;20501;45.956;13.632;2023-02-13T05:46:22;102698.75;;;9.43;46.96
34237;BME280;20501;45.956;13.632;2023-02-13T05:48:48;102708.56;;;9.62;46.46
34237;BME280;20501;45.956;13.632;2023-02-13T05:51:13;102712.00;;;7.41;50.96
34237;BME280;20501;45.956;13.632;2023-02-13T05:53:39;102712.34;;;9.07;47.98
34237;BME280;20501;45.956;13.632;2023-02-13T05:56:05;102713.66;;;6.80;50.59
34237;BME280;20501;45.956;13.632;2023-02-13T05:58:31;102713.06;;;4.47;57.04
34237;BME280;20501;45.956;13.632;2023-02-13T06:00:58;102718.72;;;7.51;52.20
34237;BME280;20501;45.956;13.632;2023-02-13T06:03:24;102723.91;;;9.09;48.29
34237;BME280;20501;45.956;13.632;2023-02-13T06:05:51;102724.81;;;8.34;48.46
34237;BME280;20501;45.956;13.632;2023-02-13T06:08:16;102729.97;;;8.77;48.76
34237;BME280;20501;45.956;13.632;2023-02-13T06:10:41;102738.34;;;9.08;47.63
34237;BME280;20501;45.956;13.632;2023-02-13T06:13:07;102738.84;;;9.34;47.09
34237;BME280;20501;45.956;13.632;2023-02-13T06:15:32;102730.09;;;7.37;49.00
34237;BME280;20501;45.956;13.632;2023-02-13T06:17:58;102727.50;;;7.34;52.68
34237;BME280;20501;45.956;13.632;2023-02-13T06:20:23;102736.47;;;7.76;51.11
34237;BME280;20501;45.956;13.632;2023-02-13T06:22:50;102737.16;;;8.96;48.35
34237;BME280;20501;45.956;13.632;2023-02-13T06:25:15;102739.41;;;8.49;49.35
34237;BME280;20501;45.956;13.632;2023-02-13T06:27:41;102737.34;;;9.28;47.15
34237;BME280;20501;45.956;13.632;2023-02-13T06:30:06;102743.81;;;9.41;46.95
34237;BME280;20501;45.956;13.632;2023-02-13T06:32:32;102748.47;;;9.03;46.55
34237;BME280;20501;45.956;13.632;2023-02-13T06:34:58;102746.38;;;9.44;46.85
34237;BME280;20501;45.956;13.632;2023-02-13T06:37:23;102747.78;;;9.69;46.38
34237;BME280;20501;45.956;13.632;2023-02-13T06:39:48;102763.59;;;9.59;46.37
34237;BME280;20501;45.956;13.632;2023-02-13T06:42:14;102749.59;;;7.00;51.47
34237;BME280;20501;45.956;13.632;2023-02-13T06:44:39;102760.72;;;9.10;47.95
34237;BME280;20501;45.956;13.632;2023-02-13T06:47:05;102754.56;;;9.43;46.89
34237;BME280;20501;45.956;13.632;2023-02-13T06:49:30;102764.38;;;9.62;46.21
34237;BME280;20501;45.956;13.632;2023-02-13T06:51:55;102765.66;;;9.72;46.39
34237;BME280;20501;45.956;13.632;2023-02-13T06:54:21;102760.09;;;9.40;47.00
34237;BME280;20501;45.956;13.632;2023-02-13T06:56:46;102760.09;;;9.57;46.35
34237;BME280;20501;45.956;13.632;2023-02-13T06:59:12;102763.28;;;9.66;46.19
34237;BME280;20501;45.956;13.632;2023-02-13T07:01:37;102756.75;;;9.35;47.01
34237;BME280;20501;45.956;13.632;2023-02-13T07:04:03;102760.88;;;9.77;45.99
34237;BME280;20501;45.956;13.632;2023-02-13T07:06:28;102768.94;;;8.89;47.90
34237;BME280;20501;45.956;13.632;2023-02-13T07:08:53;102759.22;;;9.57;46.69
34237;BME280;20501;45.956;13.632;2023-02-13T07:11:22;102763.25;;;7.98;49.40
34237;BME280;20501;45.956;13.632;2023-02-13T07:13:49;102758.31;;;7.68;51.96
34237;BME280;20501;45.956;13.632;2023-02-13T07:16:14;102760.84;;;5.41;57.76
34237;BME280;20501;45.956;13.632;2023-02-13T07:18:40;102764.34;;;5.43;59.06
34237;BME280;20501;45.956;13.632;2023-02-13T07:21:05;102763.66;;;6.38;56.68
34237;BME280;20501;45.956;13.632;2023-02-13T07:23:31;102768.00;;;6.64;55.63
34237;BME280;20501;45.956;13.632;2023-02-13T07:26:00;102763.09;;;8.22;51.44
34237;BME280;20501;45.956;13.632;2023-02-13T07:28:27;102769.66;;;8.93;49.42
34237;BME280;20501;45.956;13.632;2023-02-13T07:30:53;102761.97;;;8.26;50.60
34237;BME280;20501;45.956;13.632;2023-02-13T07:33:18;102768.28;;;9.02;49.16
34237;BME280;20501;45.956;13.632;2023-02-13T07:35:50;102760.78;;;7.32;53.61
34237;BME280;20501;45.956;13.632;2023-02-13T07:38:17;102766.66;;;7.83;52.03
34237;BME280;20501;45.956;13.632;2023-02-13T07:40:43;102763.25;;;9.13;49.19
34237;BME280;20501;45.956;13.632;2023-02-13T07:43:09;102759.47;;;8.80;49.95
34237;BME280;20501;45.956;13.632;2023-02-13T07:45:34;102754.53;;;9.08;49.22
34237;BME280;20501;45.956;13.632;2023-02-13T07:48:00;102756.09;;;8.37;50.92
34237;BME280;20501;45.956;13.632;2023-02-13T07:50:27;102761.03;;;9.56;48.22
34237;BME280;20501;45.956;13.632;2023-02-13T07:52:58;102764.41;;;9.44;48.40
34237;BME280;20501;45.956;13.632;2023-02-13T07:55:25;102763.00;;;9.88;47.49
34237;BME280;20501;45.956;13.632;2023-02-13T07:57:51;102758.66;;;8.59;50.41
34237;BME280;20501;45.956;13.632;2023-02-13T08:00:17;102752.69;;;6.89;55.45
34237;BME280;20501;45.956;13.632;2023-02-13T08:02:43;102750.50;;;7.41;54.18
34237;BME280;20501;45.956;13.632;2023-02-13T08:05:09;102755.84;;;8.99;50.39
34237;BME280;20501;45.956;13.632;2023-02-13T08:07:35;102742.63;;;8.37;51.93
34237;BME280;20501;45.956;13.632;2023-02-13T08:10:02;102747.47;;;7.70;53.89
34237;BME280;20501;45.956;13.632;2023-02-13T08:12:46;102749.41;;;8.46;51.87
34237;BME280;20501;45.956;13.632;2023-02-13T08:15:13;102752.41;;;10.01;47.75
34237;BME280;20501;45.956;13.632;2023-02-13T08:17:38;102755.66;;;10.57;46.10
34237;BME280;20501;45.956;13.632;2023-02-13T08:20:05;102753.66;;;10.61;46.11
34237;BME280;20501;45.956;13.632;2023-02-13T08:22:34;102759.66;;;10.50;46.80
34237;BME280;20501;45.956;13.632;2023-02-13T08:25:00;102754.25;;;10.66;46.07
34237;BME280;20501;45.956;13.632;2023-02-13T08:27:26;102755.28;;;10.95;45.04
34237;BME280;20501;45.956;13.632;2023-02-13T08:29:55;102748.50;;;10.88;45.43
34237;BME280;20501;45.956;13.632;2023-02-13T08:32:21;102747.63;;;10.88;45.52
34237;BME280;20501;45.956;13.632;2023-02-13T08:34:46;102749.63;;;10.68;46.47
34237;BME280;20501;45.956;13.632;2023-02-13T08:37:12;102747.63;;;10.88;45.45
34237;BME280;20501;45.956;13.632;2023-02-13T08:39:37;102750.88;;;10.62;46.96
34237;BME280;20501;45.956;13.632;2023-02-13T08:42:02;102744.06;;;10.39;47.32
34237;BME280;20501;45.956;13.632;2023-02-13T08:44:28;102748.09;;;10.14;48.07
34237;BME280;20501;45.956;13.632;2023-02-13T08:46:53;102746.09;;;10.67;46.20
34237;BME280;20501;45.956;13.632;2023-02-13T08:49:18;102745.28;;;10.81;45.58
34237;BME280;20501;45.956;13.632;2023-02-13T08:51:44;102744.38;;;10.81;46.13
34237;BME280;20501;45.956;13.632;2023-02-13T08:54:09;102743.53;;;10.48;47.02
34237;BME280;20501;45.956;13.632;2023-02-13T08:56:35;102741.63;;;10.66;46.30
34237;BME280;20501;45.956;13.632;2023-02-13T08:59:00;102732.19;;;10.90;45.52
34237;BME280;20501;45.956;13.632;2023-02-13T09:01:26;102735.63;;;10.12;47.83
34237;BME280;20501;45.956;13.632;2023-02-13T09:03:51;102733.00;;;9.76;48.77
34237;BME280;20501;45.956;13.632;2023-02-13T09:06:17;102740.31;;;10.42;47.05
34237;BME280;20501;45.956;13.632;2023-02-13T09:08:43;102738.94;;;10.17;47.66
34237;BME280;20501;45.956;13.632;2023-02-13T09:11:08;102748.41;;;10.74;46.16
34237;BME280;20501;45.956;13.632;2023-02-13T09:13:35;102734.22;;;10.54;46.73
34237;BME280;20501;45.956;13.632;2023-02-13T09:16:04;102742.59;;;10.65;46.59
34237;BME280;20501;45.956;13.632;2023-02-13T09:18:30;102748.31;;;10.43;47.31
34237;BME280;20501;45.956;13.632;2023-02-13T09:21:05;102745.34;;;10.80;46.33
34237;BME280;20501;45.956;13.632;2023-02-13T09:23:33;102750.09;;;10.11;48.40
34237;BME280;20501;45.956;13.632;2023-02-13T09:26:00;102748.19;;;10.13;48.22
34237;BME280;20501;45.956;13.632;2023-02-13T09:28:26;102738.75;;;10.04;48.85
34237;BME280;20501;45.956;13.632;2023-02-13T09:30:52;102729.81;;;10.35;47.42
34237;BME280;20501;45.956;13.632;2023-02-13T09:33:17;102742.84;;;9.78;49.63
34237;BME280;20501;45.956;13.632;2023-02-13T09:35:42;102746.84;;;10.04;48.47
34237;BME280;20501;45.956;13.632;2023-02-13T09:38:08;102752.59;;;9.98;49.00
34237;BME280;20501;45.956;13.632;2023-02-13T09:43:15;102736.75;;;10.57;47.28
34237;BME280;20501;45.956;13.632;2023-02-13T09:45:43;102742.41;;;10.03;47.99
34237;BME280;20501;45.956;13.632;2023-02-13T09:48:18;102746.25;;;10.64;47.07
34237;BME280;20501;45.956;13.632;2023-02-13T09:50:46;102750.16;;;10.59;46.74
34237;BME280;20501;45.956;13.632;2023-02-13T09:53:21;102753.13;;;10.70;47.01
34237;BME280;20501;45.956;13.632;2023-02-13T09:55:57;102744.28;;;11.29;45.36
34237;BME280;20501;45.956;13.632;2023-02-13T10:01:05;102745.34;;;10.80;45.48
34237;BME280;20501;45.956;13.632;2023-02-13T10:03:50;102746.34;;;10.79;45.55
34237;BME280;20501;45.956;13.632;2023-02-13T10:06:31;102745.53;;;11.23;45.21
34237;BME280;20501;45.956;13.632;2023-02-13T10:09:22;102732.63;;;11.28;45.57
34237;BME280;20501;45.956;13.632;2023-02-13T10:18:00;102734.13;;;10.56;46.08
34237;BME280;20501;45.956;13.632;2023-02-13T10:20:41;102728.88;;;10.84;46.08
34237;BME280;20501;45.956;13.632;2023-02-13T10:23:40;102723.84;;;11.09;44.59
34237;BME280;20501;45.956;13.632;2023-02-13T10:26:13;102714.47;;;11.30;44.47
34237;BME280;20501;45.956;13.632;2023-02-13T10:29:05;102715.81;;;11.38;44.42
34237;BME280;20501;45.956;13.632;2023-02-13T10:31:58;102722.81;;;11.42;44.32
34237;BME280;20501;45.956;13.632;2023-02-13T10:34:26;102719.69;;;11.48;44.05
34237;BME280;20501;45.956;13.632;2023-02-13T10:36:54;102717.53;;;11.69;43.86
34237;BME280;20501;45.956;13.632;2023-02-13T10:39:24;102710.28;;;11.84;43.62
34237;BME280;20501;45.956;13.632;2023-02-13T11:00:17;102692.19;;;11.85;43.49
34237;BME280;20501;45.956;13.632;2023-02-13T11:02:25;102683.75;;;11.89;43.34
34237;BME280;20501;45.956;13.632;2023-02-13T11:04:54;102677.00;;;11.82;43.78
34237;BME280;20501;45.956;13.632;2023-02-13T11:07:23;102675.94;;;11.70;44.46
34237;BME280;20501;45.956;13.632;2023-02-13T11:09:49;102669.03;;;11.21;44.34
34237;BME280;20501;45.956;13.632;2023-02-13T11:12:24;102668.75;;;11.40;44.73
34237;BME280;20501;45.956;13.632;2023-02-13T11:14:58;102674.16;;;11.40;44.73
34237;BME280;20501;45.956;13.632;2023-02-13T11:17:26;102673.38;;;11.24;44.75
34237;BME280;20501;45.956;13.632;2023-02-13T11:19:58;102664.91;;;10.99;44.54
34237;BME280;20501;45.956;13.632;2023-02-13T11:25:12;102655.53;;;11.65;43.37
34237;BME280;20501;45.956;13.632;2023-02-13T11:27:41;102649.91;;;11.82;43.21
34237;BME280;20501;45.956;13.632;2023-02-13T11:35:40;102640.22;;;12.21;41.82
34237;BME280;20501;45.956;13.632;2023-02-13T11:40:34;102645.00;;;12.45;42.41
34237;BME280;20501;45.956;13.632;2023-02-13T11:43:00;102646.88;;;12.30;41.63
34237;BME280;20501;45.956;13.632;2023-02-13T11:45:26;102642.84;;;12.50;41.45
34237;BME280;20501;45.956;13.632;2023-02-13T11:47:53;102640.34;;;12.05;42.45
34237;BME280;20501;45.956;13.632;2023-02-13T11:50:33;102641.16;;;12.62;41.98
34237;BME280;20501;45.956;13.632;2023-02-13T11:53:18;102634.66;;;13.05;40.77
34237;BME280;20501;45.956;13.632;2023-02-13T11:56:01;102633.22;;;12.99;40.93
34237;BME280;20501;45.956;13.632;2023-02-13T11:58:28;102631.94;;;13.05;41.02
34237;BME280;20501;45.956;13.632;2023-02-13T12:01:24;102630.84;;;13.08;41.14
34237;BME280;20501;45.956;13.632;2023-02-13T12:06:28;102626.00;;;13.52;40.33
34237;BME280;20501;45.956;13.632;2023-02-13T12:08:54;102623.25;;;13.39;39.91
34237;BME280;20501;45.956;13.632;2023-02-13T12:13:46;102615.06;;;13.53;39.60
34237;BME280;20501;45.956;13.632;2023-02-13T12:16:27;102600.91;;;13.35;39.47
34237;BME280;20501;45.956;13.632;2023-02-13T12:18:56;102606.25;;;14.00;39.36
34237;BME280;20501;45.956;13.632;2023-02-13T12:30:58;102590.63;;;14.88;36.69
34237;BME280;20501;45.956;13.632;2023-02-13T12:39:15;102578.16;;;14.12;38.38
34237;BME280;20501;45.956;13.632;2023-02-13T12:42:01;102561.69;;;14.02;38.38
34237;BME280;20501;45.956;13.632;2023-02-13T12:47:35;102554.41;;;14.27;37.60
34237;BME280;20501;45.956;13.632;2023-02-13T12:50:10;102562.69;;;14.01;37.63
34237;BME280;20501;45.956;13.632;2023-02-13T12:53:03;102559.09;;;13.38;39.52
34237;BME280;20501;45.956;13.632;2023-02-13T13:03:59;102552.44;;;12.64;40.72
34237;BME280;20501;45.956;13.632;2023-02-13T13:06:40;102543.91;;;13.09;39.81
34237;BME280;20501;45.956;13.632;2023-02-13T13:22:49;102533.84;;;12.45;41.74
34237;BME280;20501;45.956;13.632;2023-02-13T13:25:27;102528.75;;;12.41;41.07
34237;BME280;20501;45.956;13.632;2023-02-13T13:28:00;102526.50;;;12.47;41.43
34237;BME280;20501;45.956;13.632;2023-02-13T13:30:32;102524.28;;;12.39;41.65
34237;BME280;20501;45.956;13.632;2023-02-13T13:33:18;102524.41;;;12.38;42.20
34237;BME280;20501;45.956;13.632;2023-02-13T13:41:21;102513.84;;;12.87;40.70
34237;BME280;20501;45.956;13.632;2023-02-13T13:46:56;102518.28;;;12.62;41.87
34237;BME280;20501;45.956;13.632;2023-02-13T13:52:28;102498.00;;;12.67;41.24
34237;BME280;20501;45.956;13.632;2023-02-13T13:54:55;102500.59;;;12.56;41.94
34237;BME280;20501;45.956;13.632;2023-02-13T13:57:25;102500.16;;;12.49;42.11
34237;BME280;20501;45.956;13.632;2023-02-13T13:59:59;102501.56;;;12.68;41.90
34237;BME280;20501;45.956;13.632;2023-02-13T14:02:38;102502.00;;;12.88;41.59
34237;BME280;20501;45.956;13.632;2023-02-13T14:08:00;102496.28;;;12.79;41.55
34237;BME280;20501;45.956;13.632;2023-02-13T14:15:48;102494.41;;;12.41;42.55
34237;BME280;20501;45.956;13.632;2023-02-13T14:18:18;102490.81;;;12.53;42.33
34237;BME280;20501;45.956;13.632;2023-02-13T14:23:44;102501.34;;;12.18;43.91
34237;BME280;20501;45.956;13.632;2023-02-13T14:26:18;102499.44;;;12.20;44.18
34237;BME280;20501;45.956;13.632;2023-02-13T14:31:24;102484.84;;;12.48;43.43
34237;BME280;20501;45.956;13.632;2023-02-13T14:36:41;102492.53;;;12.42;43.88
34237;BME280;20501;45.956;13.632;2023-02-13T14:39:29;102491.75;;;12.27;44.27
34237;BME280;20501;45.956;13.632;2023-02-13T14:42:02;102486.13;;;12.30;44.19
34237;BME280;20501;45.956;13.632;2023-02-13T14:44:43;102494.25;;;12.30;44.07
34237;BME280;20501;45.956;13.632;2023-02-13T14:47:22;102492.59;;;12.27;44.19
34237;BME280;20501;45.956;13.632;2023-02-13T14:49:51;102480.56;;;12.18;44.45
34237;BME280;20501;45.956;13.632;2023-02-13T14:52:20;102490.53;;;12.18;44.70
34237;BME280;20501;45.956;13.632;2023-02-13T14:54:58;102487.94;;;12.16;44.70
34237;BME280;20501;45.956;13.632;2023-02-13T14:57:33;102491.50;;;12.17;45.02
34237;BME280;20501;45.956;13.632;2023-02-13T15:00:24;102487.34;;;12.11;44.59
34237;BME280;20501;45.956;13.632;2023-02-13T15:02:54;102480.13;;;12.12;44.70
34237;BME280;20501;45.956;13.632;2023-02-13T15:05:21;102468.50;;;12.10;44.77
34237;BME280;20501;45.956;13.632;2023-02-13T15:08:04;102471.53;;;12.05;44.84
34237;BME280;20501;45.956;13.632;2023-02-13T15:10:44;102468.06;;;12.03;45.24
34237;BME280;20501;45.956;13.632;2023-02-13T15:15:40;102461.97;;;11.99;44.86
34237;BME280;20501;45.956;13.632;2023-02-13T15:18:17;102465.53;;;12.00;44.95
34237;BME280;20501;45.956;13.632;2023-02-13T15:20:44;102462.75;;;12.01;45.35
34237;BME280;20501;45.956;13.632;2023-02-13T15:23:25;102469.78;;;12.04;45.12
34237;BME280;20501;45.956;13.632;2023-02-13T15:26:03;102472.94;;;11.98;45.21
34237;BME280;20501;45.956;13.632;2023-02-13T15:28:29;102460.13;;;12.00;45.08
34237;BME280;20501;45.956;13.632;2023-02-13T15:30:59;102463.88;;;11.97;45.22
34237;BME280;20501;45.956;13.632;2023-02-13T15:33:28;102459.44;;;11.96;44.73
34237;BME280;20501;45.956;13.632;2023-02-13T15:35:55;102468.44;;;11.97;44.90
34237;BME280;20501;45.956;13.632;2023-02-13T15:40:57;102462.00;;;11.85;45.42